createdAt,value
2022-09-15T00:00:58.706Z,94.31
2022-09-15T00:03:25.092Z,93.96
2022-09-15T00:05:53.164Z,94.21
2022-09-15T00:08:19.625Z,94.34
2022-09-15T00:10:54.091Z,94.65
2022-09-15T00:13:21.562Z,94.20
2022-09-15T00:15:48.442Z,96.01
2022-09-15T00:18:14.913Z,95.79
2022-09-15T00:20:42.894Z,94.88
2022-09-15T00:23:10.877Z,94.54
2022-09-15T00:25:45.926Z,94.15
2022-09-15T00:28:13.873Z,93.57
2022-09-15T00:30:42.676Z,93.19
2022-09-15T00:33:09.422Z,94.29
2022-09-15T00:35:40.248Z,93.45
2022-09-15T00:38:08.110Z,93.21
2022-09-15T00:40:43.544Z,93.18
2022-09-15T00:43:10.839Z,92.56
2022-09-15T00:45:37.850Z,92.50
2022-09-15T00:48:06.151Z,92.48
2022-09-15T00:50:33.916Z,92.13
2022-09-15T00:53:03.871Z,92.06
2022-09-15T00:55:37.170Z,92.18
2022-09-15T00:58:06.832Z,92.10
2022-09-15T01:00:34.569Z,92.09
2022-09-15T01:03:02.503Z,91.92
2022-09-15T01:05:34.816Z,92.00
2022-09-15T01:08:11.141Z,91.86
2022-09-15T01:10:39.512Z,92.57
2022-09-15T01:13:10.322Z,92.52
2022-09-15T01:16:04.621Z,92.65
2022-09-15T01:18:46.919Z,91.89
2022-09-15T01:21:19.232Z,91.85
2022-09-15T01:24:20.826Z,91.72
2022-09-15T01:26:58.969Z,91.70
2022-09-15T01:29:46.486Z,91.82
2022-09-15T01:32:29.193Z,91.86
2022-09-15T01:35:03.556Z,92.27
2022-09-15T01:37:36.902Z,92.01
2022-09-15T01:40:04.865Z,91.83
2022-09-15T01:42:32.852Z,92.04
2022-09-15T01:45:06.321Z,92.76
2022-09-15T01:47:35.004Z,92.62
2022-09-15T01:50:12.239Z,92.94
2022-09-15T01:52:43.288Z,93.06
2022-09-15T01:55:20.035Z,93.83
2022-09-15T01:57:46.349Z,94.04
2022-09-15T02:00:13.097Z,94.17
2022-09-15T02:02:46.113Z,94.54
2022-09-15T02:05:37.154Z,97.09
2022-09-15T02:08:31.340Z,95.91
2022-09-15T02:11:08.652Z,98.00
2022-09-15T02:14:01.188Z,99.46
2022-09-15T02:16:32.180Z,99.50
2022-09-15T02:19:16.810Z,99.07
2022-09-15T02:21:59.099Z,98.75
2022-09-15T02:24:38.247Z,98.14
2022-09-15T02:27:10.031Z,97.68
2022-09-15T02:29:37.803Z,97.05
2022-09-15T02:32:07.550Z,96.75
2022-09-15T02:34:39.655Z,95.80
2022-09-15T02:37:06.531Z,95.99
2022-09-15T02:39:36.779Z,95.03
2022-09-15T02:42:04.077Z,94.71
2022-09-15T02:44:31.168Z,94.41
2022-09-15T02:46:59.110Z,93.90
2022-09-15T02:49:25.452Z,93.44
2022-09-15T02:51:51.984Z,93.92
2022-09-15T02:54:18.359Z,93.55
2022-09-15T02:56:44.959Z,93.51
2022-09-15T02:59:11.315Z,93.62
2022-09-15T03:01:37.709Z,93.81
2022-09-15T03:04:04.668Z,93.65
2022-09-15T03:06:31.506Z,93.85
2022-09-15T03:08:58.593Z,93.97
2022-09-15T03:11:26.480Z,93.61
2022-09-15T03:13:57.928Z,93.83
2022-09-15T03:16:25.773Z,93.65
2022-09-15T03:18:54.999Z,93.49
2022-09-15T03:21:21.827Z,93.67
2022-09-15T03:23:48.230Z,93.62
2022-09-15T03:26:14.697Z,93.79
2022-09-15T03:28:41.300Z,93.60
2022-09-15T03:31:08.878Z,93.83
2022-09-15T03:33:35.619Z,94.29
2022-09-15T03:36:02.754Z,95.08
2022-09-15T03:38:29.519Z,94.82
2022-09-15T03:41:07.523Z,95.59
2022-09-15T03:43:34.427Z,95.92
2022-09-15T03:46:01.476Z,95.61
2022-09-15T03:48:31.337Z,95.24
2022-09-15T03:50:57.886Z,95.15
2022-09-15T03:53:24.285Z,94.68
2022-09-15T03:55:51.172Z,94.49
2022-09-15T03:58:18.885Z,93.84
2022-09-15T04:00:46.521Z,93.78
2022-09-15T04:03:13.543Z,93.41
2022-09-15T04:05:40.201Z,93.13
2022-09-15T04:08:06.554Z,92.85
2022-09-15T04:10:32.931Z,93.06
2022-09-15T04:12:59.220Z,93.37
2022-09-15T04:15:25.668Z,93.66
2022-09-15T04:17:51.966Z,93.17
2022-09-15T04:20:18.324Z,92.93
2022-09-15T04:22:45.007Z,92.98
2022-09-15T04:25:11.447Z,92.78
2022-09-15T04:27:37.808Z,93.03
2022-09-15T04:30:05.496Z,93.26
2022-09-15T04:32:31.816Z,93.37
2022-09-15T04:34:58.134Z,93.12
2022-09-15T04:37:24.468Z,93.21
2022-09-15T04:39:50.833Z,93.13
2022-09-15T04:42:17.200Z,92.99
2022-09-15T04:44:43.503Z,93.01
2022-09-15T04:47:09.842Z,92.70
2022-09-15T04:49:36.146Z,92.64
2022-09-15T04:52:04.769Z,92.67
2022-09-15T04:54:34.753Z,92.28
2022-09-15T04:57:01.046Z,92.55
2022-09-15T04:59:27.349Z,92.88
2022-09-15T05:01:54.830Z,92.89
2022-09-15T05:04:21.507Z,93.10
2022-09-15T05:06:47.865Z,93.00
2022-09-15T05:09:14.239Z,93.04
2022-09-15T05:11:40.704Z,92.99
2022-09-15T05:14:07.339Z,93.57
2022-09-15T05:16:33.752Z,93.66
2022-09-15T05:19:01.793Z,93.80
2022-09-15T05:21:28.840Z,93.78
2022-09-15T05:23:55.249Z,93.94
2022-09-15T05:26:24.603Z,94.61
2022-09-15T05:28:51.266Z,94.15
2022-09-15T05:31:31.249Z,94.11
2022-09-15T05:34:03.637Z,94.31
2022-09-15T05:36:30.713Z,94.24
2022-09-15T05:38:57.525Z,93.90
2022-09-15T05:41:25.786Z,93.74
2022-09-15T05:43:54.083Z,93.60
2022-09-15T05:46:20.511Z,93.55
2022-09-15T05:48:47.000Z,93.16
2022-09-15T05:51:14.070Z,93.27
2022-09-15T05:53:40.420Z,93.32
2022-09-15T05:56:11.943Z,93.38
2022-09-15T05:58:42.750Z,93.39
2022-09-15T06:01:13.647Z,93.22
2022-09-15T06:03:40.030Z,93.38
2022-09-15T06:06:07.321Z,93.19
2022-09-15T06:08:36.455Z,93.21
2022-09-15T06:11:09.539Z,92.81
2022-09-15T06:13:36.341Z,92.95
2022-09-15T06:16:11.021Z,92.83
2022-09-15T06:18:39.182Z,93.18
2022-09-15T06:21:09.703Z,92.68
2022-09-15T06:23:36.869Z,92.24
2022-09-15T06:26:08.295Z,92.17
2022-09-15T06:28:35.039Z,92.11
2022-09-15T06:31:01.353Z,91.72
2022-09-15T06:33:27.640Z,91.74
2022-09-15T06:35:54.209Z,91.28
2022-09-15T06:38:20.646Z,91.65
2022-09-15T06:40:55.276Z,91.43
2022-09-15T06:43:22.000Z,91.15
2022-09-15T06:45:48.418Z,90.71
2022-09-15T06:48:24.464Z,90.46
2022-09-15T06:50:54.861Z,90.07
2022-09-15T06:53:21.875Z,90.39
2022-09-15T06:55:48.176Z,90.04
2022-09-15T06:58:14.497Z,90.07
2022-09-15T07:00:41.035Z,89.62
2022-09-15T07:03:07.402Z,89.25
2022-09-15T07:05:33.803Z,89.27
2022-09-15T07:08:00.149Z,88.38
2022-09-15T07:10:26.617Z,87.75
2022-09-15T07:12:52.959Z,89.68
2022-09-15T07:15:19.341Z,90.75
2022-09-15T07:17:45.638Z,91.58
2022-09-15T07:20:11.992Z,92.06
2022-09-15T07:22:38.303Z,92.49
2022-09-15T07:25:04.979Z,92.84
2022-09-15T07:27:31.338Z,94.62
2022-09-15T07:29:58.659Z,93.43
2022-09-15T07:32:25.367Z,92.99
2022-09-15T07:34:52.941Z,93.85
2022-09-15T07:37:21.804Z,92.50
2022-09-15T07:39:48.149Z,92.66
2022-09-15T07:42:15.554Z,92.17
2022-09-15T07:44:41.912Z,90.75
2022-09-15T07:47:08.227Z,88.91
2022-09-15T07:49:34.528Z,89.08
2022-09-15T07:52:01.007Z,87.76
2022-09-15T07:54:27.338Z,87.29
2022-09-15T07:56:53.638Z,87.20
2022-09-15T07:59:19.952Z,84.42
2022-09-15T08:01:47.503Z,85.30
2022-09-15T08:04:13.823Z,87.02
2022-09-15T08:06:40.110Z,87.29
2022-09-15T08:09:06.520Z,83.95
2022-09-15T08:11:32.866Z,82.63
2022-09-15T08:14:00.924Z,82.02
2022-09-15T08:16:27.352Z,84.28
2022-09-15T08:18:54.656Z,85.00
2022-09-15T08:21:21.918Z,79.97
2022-09-15T08:23:53.154Z,81.83
2022-09-15T08:26:19.562Z,82.43
2022-09-15T08:28:45.957Z,82.43
2022-09-15T08:31:14.261Z,79.58
2022-09-15T08:33:45.507Z,74.44
2022-09-15T08:36:12.815Z,74.21
2022-09-15T08:38:40.873Z,75.67
2022-09-15T08:41:15.179Z,74.44
2022-09-15T08:43:47.942Z,74.29
2022-09-15T08:46:20.038Z,73.18
2022-09-15T08:48:57.711Z,70.11
2022-09-15T08:51:32.260Z,70.32
2022-09-15T08:54:07.397Z,69.00
2022-09-15T08:56:35.819Z,66.53
2022-09-15T08:59:02.362Z,67.09
2022-09-15T09:01:53.595Z,63.65
2022-09-15T09:04:38.768Z,64.74
2022-09-15T09:07:07.788Z,63.58
2022-09-15T09:09:45.586Z,62.06
2022-09-15T09:12:29.472Z,62.07
2022-09-15T09:15:20.526Z,61.46
2022-09-15T09:17:55.769Z,62.51
2022-09-15T09:20:48.857Z,61.58
2022-09-15T09:23:19.546Z,59.69
2022-09-15T09:25:46.553Z,59.95
2022-09-15T09:28:37.819Z,58.38
2022-09-15T09:31:07.357Z,58.07
2022-09-15T09:33:47.720Z,53.01
2022-09-15T09:36:15.022Z,54.58
2022-09-15T09:38:44.416Z,55.15
2022-09-15T09:41:17.463Z,53.49
2022-09-15T09:43:47.329Z,54.28
2022-09-15T09:46:15.568Z,52.31
2022-09-15T09:49:05.029Z,48.88
2022-09-15T09:51:37.307Z,50.81
2022-09-15T09:54:11.733Z,49.61
2022-09-15T09:56:38.314Z,50.28
2022-09-15T09:59:04.667Z,50.69
2022-09-15T10:01:31.347Z,50.34
2022-09-15T10:04:17.877Z,51.78
2022-09-15T10:06:44.677Z,52.36
2022-09-15T10:09:18.806Z,51.13
2022-09-15T10:11:51.192Z,52.45
2022-09-15T10:14:30.829Z,52.09
2022-09-15T10:17:16.316Z,51.43
2022-09-15T10:19:42.586Z,50.21
2022-09-15T10:22:10.030Z,50.75
2022-09-15T10:24:39.781Z,51.48
2022-09-15T10:27:25.203Z,51.24
2022-09-15T10:29:51.532Z,49.69
2022-09-15T10:32:27.229Z,51.19
2022-09-15T10:35:20.725Z,52.62
2022-09-15T10:38:04.231Z,52.27
2022-09-15T10:40:56.308Z,53.33
2022-09-15T10:43:38.751Z,52.74
2022-09-15T10:46:12.606Z,55.06
2022-09-15T10:49:11.375Z,55.48
2022-09-15T10:51:52.923Z,55.98
2022-09-15T10:55:42.190Z,56.79
2022-09-15T10:58:46.854Z,53.71
2022-09-15T11:01:25.688Z,54.82
2022-09-15T11:04:19.247Z,55.15
2022-09-15T11:06:51.496Z,55.46
2022-09-15T11:09:26.942Z,55.00
2022-09-15T11:12:09.875Z,53.23
2022-09-15T11:15:16.732Z,51.41
2022-09-15T11:18:24.315Z,53.02
2022-09-15T11:21:01.032Z,51.79
2022-09-15T11:23:51.352Z,50.61
2022-09-15T11:26:27.096Z,53.10
2022-09-15T11:28:59.451Z,53.12
2022-09-15T11:31:54.988Z,55.09
2022-09-15T11:34:26.804Z,58.47
2022-09-15T11:36:59.761Z,59.52
2022-09-15T11:39:34.345Z,61.79
2022-09-15T11:42:05.864Z,63.75
2022-09-15T11:44:37.859Z,65.54
2022-09-15T11:47:29.899Z,68.14
2022-09-15T11:49:58.206Z,68.14
2022-09-15T11:52:46.433Z,66.78
2022-09-15T11:55:23.046Z,68.07
2022-09-15T11:58:21.619Z,68.22
2022-09-15T12:01:19.496Z,67.16
2022-09-15T12:03:52.514Z,65.64
2022-09-15T12:06:29.072Z,66.36
2022-09-15T12:08:59.443Z,65.55
2022-09-15T12:11:28.380Z,64.59
2022-09-15T12:13:55.242Z,64.99
2022-09-15T12:16:22.873Z,63.95
2022-09-15T12:18:56.308Z,64.66
2022-09-15T12:21:39.231Z,64.76
2022-09-15T12:24:23.205Z,63.08
2022-09-15T12:26:49.654Z,62.97
2022-09-15T12:29:21.845Z,63.56
2022-09-15T12:31:48.320Z,64.23
2022-09-15T12:34:35.340Z,62.92
2022-09-15T12:37:13.476Z,62.17
2022-09-15T12:39:42.057Z,59.74
2022-09-15T12:42:23.595Z,60.55
2022-09-15T12:45:06.894Z,57.85
2022-09-15T12:47:41.185Z,60.64
2022-09-15T12:50:16.559Z,60.32
2022-09-15T12:52:47.104Z,60.18
2022-09-15T12:55:23.502Z,57.54
2022-09-15T12:57:56.447Z,56.89
2022-09-15T13:00:22.913Z,55.19
2022-09-15T13:02:52.895Z,56.04
2022-09-15T13:05:40.993Z,55.66
2022-09-15T13:08:22.575Z,56.37
2022-09-15T13:11:08.116Z,59.22
2022-09-15T13:13:58.592Z,59.66
2022-09-15T13:16:34.690Z,62.26
2022-09-15T13:19:34.895Z,63.79
2022-09-15T13:22:18.981Z,63.78
2022-09-15T13:24:57.807Z,62.39
2022-09-15T13:27:40.076Z,59.94
2022-09-15T13:30:28.884Z,56.41
2022-09-15T13:33:04.155Z,54.61
2022-09-15T13:35:52.266Z,52.83
2022-09-15T13:38:42.890Z,53.37
2022-09-15T13:41:18.203Z,51.76
2022-09-15T13:44:09.112Z,50.80
2022-09-15T13:46:49.094Z,52.37
2022-09-15T13:49:43.349Z,50.97
2022-09-15T13:52:32.898Z,49.64
2022-09-15T13:55:09.332Z,51.31
2022-09-15T14:00:29.638Z,51.29
2022-09-15T14:03:09.146Z,50.33
2022-09-15T14:05:36.558Z,51.36
2022-09-15T14:08:13.284Z,50.24
2022-09-15T14:10:54.087Z,50.35
2022-09-15T14:13:23.094Z,50.04
2022-09-15T14:16:01.668Z,50.81
2022-09-15T14:18:29.756Z,50.39
2022-09-15T14:21:01.726Z,49.68
2022-09-15T14:23:28.784Z,51.58
2022-09-15T14:25:56.542Z,51.75
2022-09-15T14:28:31.397Z,50.88
2022-09-15T14:31:02.260Z,49.80
2022-09-15T14:33:37.929Z,52.54
2022-09-15T14:36:27.992Z,51.31
2022-09-15T14:39:16.130Z,52.56
2022-09-15T14:41:42.486Z,52.16
2022-09-15T14:45:54.736Z,53.97
2022-09-15T14:47:25.335Z,54.69
2022-09-15T14:50:08.632Z,54.61
2022-09-15T14:52:41.855Z,55.18
2022-09-15T14:55:15.271Z,55.10
2022-09-15T14:57:46.344Z,54.86
2022-09-15T15:00:18.990Z,55.06
2022-09-15T15:02:48.268Z,55.95
2022-09-15T15:05:20.052Z,55.53
2022-09-15T15:07:46.952Z,55.51
2022-09-15T15:10:20.075Z,59.40
2022-09-15T15:12:52.174Z,61.96
2022-09-15T15:15:18.813Z,62.29
2022-09-15T15:17:47.667Z,63.54
2022-09-15T15:20:16.388Z,65.27
2022-09-15T15:22:44.098Z,66.38
2022-09-15T15:25:29.560Z,67.85
2022-09-15T15:27:59.992Z,68.93
2022-09-15T15:30:29.472Z,68.90
2022-09-15T15:33:25.876Z,66.93
2022-09-15T15:36:05.833Z,66.08
2022-09-15T15:38:47.539Z,66.22
2022-09-15T15:41:24.611Z,65.61
2022-09-15T15:43:59.350Z,64.61
2022-09-15T15:46:45.362Z,64.61
2022-09-15T15:49:11.974Z,63.71
2022-09-15T15:51:38.461Z,63.79
2022-09-15T15:54:04.911Z,62.31
2022-09-15T15:56:34.627Z,61.36
2022-09-15T15:59:03.567Z,61.68
2022-09-15T16:01:29.913Z,61.03
2022-09-15T16:03:56.228Z,61.51
2022-09-15T16:06:22.917Z,62.00
2022-09-15T16:08:49.988Z,60.95
2022-09-15T16:11:16.853Z,61.26
2022-09-15T16:13:43.246Z,61.37
2022-09-15T16:16:21.509Z,61.16
2022-09-15T16:18:48.303Z,60.22
2022-09-15T16:21:20.379Z,61.07
2022-09-15T16:23:47.137Z,61.57
2022-09-15T16:26:15.572Z,62.08
2022-09-15T16:28:42.078Z,62.08
2022-09-15T16:31:13.460Z,63.18
2022-09-15T16:33:40.873Z,63.71
2022-09-15T16:36:16.055Z,64.47
2022-09-15T16:38:43.165Z,63.28
2022-09-15T16:41:14.130Z,64.12
2022-09-15T16:43:40.454Z,65.00
2022-09-15T16:46:08.448Z,65.23
2022-09-15T16:48:34.894Z,66.00
2022-09-15T16:53:47.748Z,66.52
2022-09-15T16:56:15.295Z,65.95
2022-09-15T16:58:42.637Z,66.04
2022-09-15T17:01:20.095Z,65.89
2022-09-15T17:03:46.899Z,66.14
2022-09-15T17:06:15.637Z,66.30
2022-09-15T17:08:42.150Z,66.16
2022-09-15T17:11:16.485Z,66.46
2022-09-15T17:13:43.891Z,66.59
2022-09-15T17:16:11.048Z,67.04
2022-09-15T17:18:37.443Z,68.47
2022-09-15T17:21:03.822Z,69.28
2022-09-15T17:23:34.190Z,70.37
2022-09-15T17:26:03.210Z,71.66
2022-09-15T17:28:34.680Z,71.93
2022-09-15T17:31:06.883Z,73.45
2022-09-15T17:33:33.288Z,73.27
2022-09-15T17:36:00.347Z,73.96
2022-09-15T17:38:26.914Z,74.96
2022-09-15T17:40:53.851Z,76.74
2022-09-15T17:43:22.631Z,76.57
2022-09-15T17:45:49.980Z,78.24
2022-09-15T17:48:16.735Z,79.28
2022-09-15T17:50:44.391Z,79.20
2022-09-15T17:53:13.995Z,78.62
2022-09-15T17:55:40.348Z,78.65
2022-09-15T17:58:07.081Z,79.28
2022-09-15T18:00:36.740Z,79.29
2022-09-15T18:03:19.954Z,80.37
2022-09-15T18:05:46.595Z,80.59
2022-09-15T18:08:13.061Z,80.18
2022-09-15T18:10:39.417Z,80.46
2022-09-15T18:13:06.245Z,80.43
2022-09-15T18:15:34.853Z,80.95
2022-09-15T18:18:03.817Z,80.98
2022-09-15T18:20:32.608Z,81.24
2022-09-15T18:22:59.175Z,81.56
2022-09-15T18:25:31.456Z,81.60
2022-09-15T18:27:59.209Z,81.77
2022-09-15T18:30:28.476Z,82.50
2022-09-15T18:32:55.193Z,83.13
2022-09-15T18:35:21.895Z,83.04
2022-09-15T18:37:53.921Z,83.29
2022-09-15T18:40:20.238Z,85.21
2022-09-15T18:42:46.664Z,85.89
2022-09-15T18:45:14.852Z,87.29
2022-09-15T18:47:41.203Z,87.12
2022-09-15T18:50:08.220Z,86.00
2022-09-15T18:52:39.771Z,87.05
2022-09-15T18:55:08.016Z,86.80
2022-09-15T18:57:39.196Z,87.25
2022-09-15T19:00:12.148Z,87.19
2022-09-15T19:02:38.860Z,87.44
2022-09-15T19:05:06.854Z,87.32
2022-09-15T19:07:33.196Z,87.46
2022-09-15T19:09:59.592Z,87.89
2022-09-15T19:12:26.168Z,88.02
2022-09-15T19:14:52.488Z,88.46
2022-09-15T19:17:18.839Z,88.35
2022-09-15T19:19:45.265Z,88.66
2022-09-15T19:22:12.232Z,88.80
2022-09-15T19:24:38.575Z,88.23
2022-09-15T19:27:06.129Z,88.52
2022-09-15T19:29:34.793Z,88.69
2022-09-15T19:32:11.435Z,89.20
2022-09-15T19:34:39.284Z,88.14
2022-09-15T19:37:10.792Z,88.20
2022-09-15T19:39:40.293Z,87.39
2022-09-15T19:42:07.917Z,87.58
2022-09-15T19:44:34.399Z,87.15
2022-09-15T19:47:00.754Z,87.09
2022-09-15T19:49:27.132Z,87.03
2022-09-15T19:51:54.197Z,87.34
2022-09-15T19:54:25.675Z,87.03
2022-09-15T19:56:52.348Z,87.26
2022-09-15T19:59:19.722Z,86.97
2022-09-15T20:01:46.967Z,86.57
2022-09-15T20:06:58.190Z,86.96
2022-09-15T20:09:24.512Z,86.92
2022-09-15T20:11:50.795Z,87.23
2022-09-15T20:14:17.115Z,87.52
2022-09-15T20:16:43.472Z,88.11
2022-09-15T20:19:09.987Z,87.85
2022-09-15T20:21:52.758Z,88.22
2022-09-15T20:24:20.369Z,88.47
2022-09-15T20:26:46.767Z,88.68
2022-09-15T20:29:13.141Z,88.31
2022-09-15T20:31:40.349Z,88.41
2022-09-15T20:34:06.961Z,88.57
2022-09-15T20:36:35.615Z,89.19
2022-09-15T20:39:04.319Z,88.99
2022-09-15T20:41:31.357Z,89.46
2022-09-15T20:43:57.800Z,89.44
2022-09-15T20:46:24.322Z,89.95
2022-09-15T20:48:51.535Z,90.41
2022-09-15T20:51:27.366Z,90.30
2022-09-15T20:53:55.197Z,89.90
2022-09-15T20:56:24.191Z,90.59
2022-09-15T20:58:54.080Z,91.11
2022-09-15T21:01:23.567Z,91.92
2022-09-15T21:03:50.515Z,92.05
2022-09-15T21:06:24.454Z,96.03
2022-09-15T21:08:50.897Z,96.59
2022-09-15T21:11:19.058Z,95.55
2022-09-15T21:13:46.336Z,95.74
2022-09-15T21:16:15.483Z,95.00
2022-09-15T21:18:43.224Z,94.31
2022-09-15T21:21:12.692Z,93.05
2022-09-15T21:23:44.891Z,92.60
2022-09-15T21:26:13.976Z,92.27
2022-09-15T21:28:40.314Z,92.76
2022-09-15T21:31:10.208Z,92.57
2022-09-15T21:33:37.912Z,93.23
2022-09-15T21:36:12.915Z,93.21
2022-09-15T21:38:41.653Z,93.20
2022-09-15T21:41:13.168Z,92.55
2022-09-15T21:43:40.988Z,92.03
2022-09-15T21:46:12.116Z,92.20
2022-09-15T21:48:39.294Z,93.04
2022-09-15T21:51:06.829Z,93.15
2022-09-15T21:53:33.979Z,94.85
2022-09-15T21:56:01.423Z,94.00
2022-09-15T21:58:27.995Z,94.95
2022-09-15T22:00:54.367Z,93.89
2022-09-15T22:03:20.732Z,94.19
2022-09-15T22:05:47.419Z,95.30
2022-09-15T22:08:15.548Z,95.08
2022-09-15T22:10:43.539Z,95.88
2022-09-15T22:13:11.206Z,94.98
2022-09-15T22:15:37.745Z,95.08
2022-09-15T22:18:04.389Z,94.93
2022-09-15T22:20:30.717Z,95.30
2022-09-15T22:23:00.264Z,96.44
2022-09-15T22:25:26.927Z,100.00
2022-09-15T22:27:53.307Z,99.83
2022-09-15T22:30:19.638Z,99.56
2022-09-15T22:32:45.954Z,100.00
2022-09-15T22:35:12.369Z,99.76
2022-09-15T22:37:38.785Z,98.96
2022-09-15T22:40:05.795Z,98.47
2022-09-15T22:42:32.163Z,98.16
2022-09-15T22:44:58.497Z,97.78
2022-09-15T22:47:24.808Z,97.07
2022-09-15T22:49:51.158Z,96.37
2022-09-15T22:52:17.567Z,96.07
2022-09-15T22:54:43.879Z,95.58
2022-09-15T22:57:10.205Z,95.43
2022-09-15T22:59:36.568Z,95.00
2022-09-15T23:02:02.952Z,95.00
2022-09-15T23:04:29.453Z,94.95
2022-09-15T23:06:55.793Z,94.72
2022-09-15T23:09:22.159Z,94.20
2022-09-15T23:11:48.469Z,94.81
2022-09-15T23:14:16.546Z,94.53
2022-09-15T23:16:44.019Z,94.82
2022-09-15T23:19:13.413Z,94.92
2022-09-15T23:21:39.854Z,94.67
2022-09-15T23:24:06.490Z,94.88
2022-09-15T23:26:32.851Z,95.23
2022-09-15T23:28:59.218Z,95.16
2022-09-15T23:31:25.663Z,95.74
2022-09-15T23:33:52.025Z,96.27
2022-09-15T23:36:18.421Z,97.56
2022-09-15T23:38:47.251Z,96.95
2022-09-15T23:41:15.228Z,96.91
2022-09-15T23:43:41.854Z,96.84
2022-09-15T23:46:09.148Z,96.60
2022-09-15T23:48:35.850Z,96.14
2022-09-15T23:51:02.637Z,96.36
2022-09-15T23:53:29.212Z,97.04
2022-09-15T23:55:56.201Z,96.89
2022-09-15T23:58:22.590Z,96.52
